首页
METAR-TAF:

METAR-TAF

机场 :

斯普利特, 克罗地亚

纬度: 43-32N, 经度: 016-18E, 海拔: 19米

当前天气观测

该预报发布于14分钟前的11:00 UTC
风速12节,风向西南,在西转西南之间变化
温度 27°C
湿度 30%
气压 1016 hPa
能见度10公里或以上
1500米以下无云,无积雨云

METAR: LDSP 131100Z 22012KT 190V250 CAVOK 27/08 Q1016 NOSIG

时间: 13:14 (11:14 UTC)

预报

该预报发布于5小时和49分钟前的05:25 UTC
预报有效从13日的 06点(UTC)到 14日的 06点(UTC)
风速9节,风向东转东北
能见度10公里或以上
1500米以下无云,无积雨云
成为
从 13日的 09点(UTC)到 13日的 11点(UTC)
风速10节,风向西南
成为
从 13日的 16点(UTC)到 13日的 18点(UTC)
风速6节,风向西转西北
成为
从 13日的 19点(UTC)到 13日的 21点(UTC)
风速10节,风向东北

TAF: LDSP 130525Z 1306/1406 06009KT CAVOK TX29/1314Z TN18/1403Z BECMG 1309/1311 23010KT BECMG 1316/1318 30006KT BECMG 1319/1321 05010KT

超过4000个机场的气象观测和天气预报(METAR&TAF报告)。

可查询的气象台以黄色和红色小点在地图上表示。

将鼠标移到小点上方,可查看气象台名称。

然后点击查看天气观测和预报。

如需切换地图:点击带黑十字的绿色按钮放大地图;点击带横线的绿色按钮缩小地图;或者点击绿色箭头查看邻近地区的地图。


METAR-TAF: